sensor_id;sensor_type;location;lat;lon;timestamp;pressure;altitude;pressure_sealevel;temperature;humidity
11314;BME280;5712;48.858;9.206;2023-03-04T00:02:04;98702.44;;;1.80;95.88
11314;BME280;5712;48.858;9.206;2023-03-04T00:04:31;98698.97;;;1.78;96.18
11314;BME280;5712;48.858;9.206;2023-03-04T00:06:58;98692.81;;;1.82;96.03
11314;BME280;5712;48.858;9.206;2023-03-04T00:09:24;98701.69;;;1.75;96.43
11314;BME280;5712;48.858;9.206;2023-03-04T00:11:51;98703.53;;;1.70;96.65
11314;BME280;5712;48.858;9.206;2023-03-04T00:14:17;98701.97;;;1.65;97.18
11314;BME280;5712;48.858;9.206;2023-03-04T00:16:44;98700.19;;;1.65;97.09
11314;BME280;5712;48.858;9.206;2023-03-04T00:19:10;98700.31;;;1.61;97.13
11314;BME280;5712;48.858;9.206;2023-03-04T00:21:38;98695.94;;;1.61;97.15
11314;BME280;5712;48.858;9.206;2023-03-04T00:24:05;98700.50;;;1.53;97.35
11314;BME280;5712;48.858;9.206;2023-03-04T00:26:32;98711.75;;;1.55;97.40
11314;BME280;5712;48.858;9.206;2023-03-04T00:28:58;98708.41;;;1.50;97.56
11314;BME280;5712;48.858;9.206;2023-03-04T00:31:25;98703.34;;;1.44;97.69
11314;BME280;5712;48.858;9.206;2023-03-04T00:33:51;98702.44;;;1.45;97.84
11314;BME280;5712;48.858;9.206;2023-03-04T00:36:18;98706.03;;;1.40;97.92
11314;BME280;5712;48.858;9.206;2023-03-04T00:38:46;98705.09;;;1.42;98.44
11314;BME280;5712;48.858;9.206;2023-03-04T00:41:12;98712.25;;;1.34;98.53
11314;BME280;5712;48.858;9.206;2023-03-04T00:43:39;98707.03;;;1.34;98.30
11314;BME280;5712;48.858;9.206;2023-03-04T00:46:05;98703.53;;;1.35;98.43
11314;BME280;5712;48.858;9.206;2023-03-04T00:48:32;98701.78;;;1.37;98.21
11314;BME280;5712;48.858;9.206;2023-03-04T00:50:58;98710.41;;;1.39;98.49
11314;BME280;5712;48.858;9.206;2023-03-04T00:53:25;98711.47;;;1.31;98.61
11314;BME280;5712;48.858;9.206;2023-03-04T00:55:53;98705.34;;;1.33;98.23
11314;BME280;5712;48.858;9.206;2023-03-04T00:58:19;98696.03;;;1.23;98.92
11314;BME280;5712;48.858;9.206;2023-03-04T01:00:46;98705.69;;;1.18;98.90
11314;BME280;5712;48.858;9.206;2023-03-04T01:03:13;98700.53;;;1.17;99.10
11314;BME280;5712;48.858;9.206;2023-03-04T01:05:39;98700.59;;;1.14;99.78
11314;BME280;5712;48.858;9.206;2023-03-04T01:08:06;98699.03;;;1.05;99.60
11314;BME280;5712;48.858;9.206;2023-03-04T01:10:32;98694.84;;;1.00;100.00
11314;BME280;5712;48.858;9.206;2023-03-04T01:13:00;98693.97;;;0.99;100.00
11314;BME280;5712;48.858;9.206;2023-03-04T01:15:27;98694.91;;;0.97;100.00
11314;BME280;5712;48.858;9.206;2023-03-04T01:17:54;98693.84;;;1.05;100.00
11314;BME280;5712;48.858;9.206;2023-03-04T01:20:20;98693.03;;;1.03;100.00
11314;BME280;5712;48.858;9.206;2023-03-04T01:22:47;98689.78;;;0.94;100.00
11314;BME280;5712;48.858;9.206;2023-03-04T01:25:13;98695.69;;;1.00;100.00
11314;BME280;5712;48.858;9.206;2023-03-04T01:27:40;98696.00;;;0.88;100.00
11314;BME280;5712;48.858;9.206;2023-03-04T01:30:09;98690.94;;;0.81;100.00
11314;BME280;5712;48.858;9.206;2023-03-04T01:32:36;98694.59;;;0.72;100.00
11314;BME280;5712;48.858;9.206;2023-03-04T01:35:03;98693.78;;;0.70;100.00
11314;BME280;5712;48.858;9.206;2023-03-04T01:37:29;98691.13;;;0.72;100.00
11314;BME280;5712;48.858;9.206;2023-03-04T01:39:56;98690.31;;;0.70;100.00
11314;BME280;5712;48.858;9.206;2023-03-04T01:42:23;98685.09;;;0.71;100.00
11314;BME280;5712;48.858;9.206;2023-03-04T01:44:52;98682.50;;;0.71;100.00
11314;BME280;5712;48.858;9.206;2023-03-04T01:47:21;98687.69;;;0.71;100.00
11314;BME280;5712;48.858;9.206;2023-03-04T01:49:52;98684.22;;;0.71;100.00
11314;BME280;5712;48.858;9.206;2023-03-04T01:52:19;98684.25;;;0.69;100.00
11314;BME280;5712;48.858;9.206;2023-03-04T01:54:46;98687.72;;;0.70;100.00
11314;BME280;5712;48.858;9.206;2023-03-04T01:57:15;98686.97;;;0.63;100.00
11314;BME280;5712;48.858;9.206;2023-03-04T01:59:42;98680.91;;;0.64;100.00
11314;BME280;5712;48.858;9.206;2023-03-04T02:02:09;98683.50;;;0.64;100.00
11314;BME280;5712;48.858;9.206;2023-03-04T02:04:38;98696.53;;;0.64;100.00
11314;BME280;5712;48.858;9.206;2023-03-04T02:07:05;98680.91;;;0.64;100.00
11314;BME280;5712;48.858;9.206;2023-03-04T02:09:32;98684.56;;;0.56;100.00
11314;BME280;5712;48.858;9.206;2023-03-04T02:12:00;98682.09;;;0.50;100.00
11314;BME280;5712;48.858;9.206;2023-03-04T02:14:27;98683.66;;;0.57;100.00
11314;BME280;5712;48.858;9.206;2023-03-04T02:16:53;98682.97;;;0.49;100.00
11314;BME280;5712;48.858;9.206;2023-03-04T02:19:27;98681.44;;;0.40;100.00
11314;BME280;5712;48.858;9.206;2023-03-04T02:21:58;98681.47;;;0.37;100.00
11314;BME280;5712;48.858;9.206;2023-03-04T02:24:26;98679.81;;;0.33;100.00
11314;BME280;5712;48.858;9.206;2023-03-04T02:26:55;98674.69;;;0.30;100.00
11314;BME280;5712;48.858;9.206;2023-03-04T02:29:22;98676.50;;;0.25;100.00
11314;BME280;5712;48.858;9.206;2023-03-04T02:31:50;98671.31;;;0.25;100.00
11314;BME280;5712;48.858;9.206;2023-03-04T02:34:19;98678.34;;;0.20;100.00
11314;BME280;5712;48.858;9.206;2023-03-04T02:36:47;98680.09;;;0.21;100.00
11314;BME280;5712;48.858;9.206;2023-03-04T02:39:22;98674.84;;;0.23;100.00
11314;BME280;5712;48.858;9.206;2023-03-04T02:41:51;98683.50;;;0.23;100.00
11314;BME280;5712;48.858;9.206;2023-03-04T02:44:23;98676.63;;;0.19;100.00
11314;BME280;5712;48.858;9.206;2023-03-04T02:46:50;98682.81;;;0.15;100.00
11314;BME280;5712;48.858;9.206;2023-03-04T02:49:18;98683.75;;;0.11;100.00
11314;BME280;5712;48.858;9.206;2023-03-04T02:51:45;98684.66;;;0.07;100.00
11314;BME280;5712;48.858;9.206;2023-03-04T02:54:15;98681.25;;;0.07;100.00
11314;BME280;5712;48.858;9.206;2023-03-04T02:56:45;98687.28;;;0.07;100.00
11314;BME280;5712;48.858;9.206;2023-03-04T02:59:11;98684.84;;;0.00;100.00
11314;BME280;5712;48.858;9.206;2023-03-04T03:01:39;98682.31;;;-0.05;100.00
11314;BME280;5712;48.858;9.206;2023-03-04T03:04:06;98691.81;;;-0.04;100.00
11314;BME280;5712;48.858;9.206;2023-03-04T03:06:33;98682.41;;;-0.11;100.00
11314;BME280;5712;48.858;9.206;2023-03-04T03:08:59;98681.63;;;-0.16;100.00
11314;BME280;5712;48.858;9.206;2023-03-04T03:11:26;98679.97;;;-0.18;100.00
11314;BME280;5712;48.858;9.206;2023-03-04T03:13:52;98679.16;;;-0.22;100.00
11314;BME280;5712;48.858;9.206;2023-03-04T03:16:19;98689.53;;;-0.22;100.00
11314;BME280;5712;48.858;9.206;2023-03-04T03:18:47;98683.59;;;-0.26;100.00
11314;BME280;5712;48.858;9.206;2023-03-04T03:21:13;98683.63;;;-0.28;100.00
11314;BME280;5712;48.858;9.206;2023-03-04T03:23:40;98685.31;;;-0.25;100.00
11314;BME280;5712;48.858;9.206;2023-03-04T03:26:07;98684.47;;;-0.28;100.00
11314;BME280;5712;48.858;9.206;2023-03-04T03:28:34;98678.41;;;-0.26;100.00
11314;BME280;5712;48.858;9.206;2023-03-04T03:31:01;98678.44;;;-0.28;100.00
11314;BME280;5712;48.858;9.206;2023-03-04T03:33:27;98677.56;;;-0.28;100.00
11314;BME280;5712;48.858;9.206;2023-03-04T03:35:55;98673.28;;;-0.31;100.00
11314;BME280;5712;48.858;9.206;2023-03-04T03:38:22;98675.13;;;-0.36;100.00
11314;BME280;5712;48.858;9.206;2023-03-04T03:40:48;98670.75;;;-0.35;100.00
11314;BME280;5712;48.858;9.206;2023-03-04T03:43:15;98676.03;;;-0.40;100.00
11314;BME280;5712;48.858;9.206;2023-03-04T03:45:41;98687.34;;;-0.44;100.00
11314;BME280;5712;48.858;9.206;2023-03-04T03:48:08;98674.31;;;-0.39;100.00
11314;BME280;5712;48.858;9.206;2023-03-04T03:50:34;98676.06;;;-0.41;100.00
11314;BME280;5712;48.858;9.206;2023-03-04T03:53:02;98676.88;;;-0.38;100.00
11314;BME280;5712;48.858;9.206;2023-03-04T03:55:29;98679.53;;;-0.42;100.00
11314;BME280;5712;48.858;9.206;2023-03-04T03:57:55;98679.53;;;-0.42;100.00
11314;BME280;5712;48.858;9.206;2023-03-04T04:00:22;98681.44;;;-0.50;100.00
11314;BME280;5712;48.858;9.206;2023-03-04T04:02:48;98679.72;;;-0.51;100.00
11314;BME280;5712;48.858;9.206;2023-03-04T04:05:15;98678.94;;;-0.56;100.00
11314;BME280;5712;48.858;9.206;2023-03-04T04:07:42;98683.25;;;-0.55;100.00
11314;BME280;5712;48.858;9.206;2023-03-04T04:10:10;98682.44;;;-0.60;100.00
11314;BME280;5712;48.858;9.206;2023-03-04T04:12:37;98677.34;;;-0.65;100.00
11314;BME280;5712;48.858;9.206;2023-03-04T04:15:04;98686.81;;;-0.62;100.00
11314;BME280;5712;48.858;9.206;2023-03-04T04:17:31;98674.84;;;-0.69;100.00
11314;BME280;5712;48.858;9.206;2023-03-04T04:19:58;98678.25;;;-0.67;100.00
11314;BME280;5712;48.858;9.206;2023-03-04T04:22:24;98676.56;;;-0.70;100.00
11314;BME280;5712;48.858;9.206;2023-03-04T04:24:50;98681.81;;;-0.74;100.00
11314;BME280;5712;48.858;9.206;2023-03-04T04:27:18;98683.47;;;-0.70;100.00
11314;BME280;5712;48.858;9.206;2023-03-04T04:29:45;98687.84;;;-0.72;100.00
11314;BME280;5712;48.858;9.206;2023-03-04T04:32:11;98688.66;;;-0.70;100.00
11314;BME280;5712;48.858;9.206;2023-03-04T04:34:38;98684.41;;;-0.73;100.00
11314;BME280;5712;48.858;9.206;2023-03-04T04:37:04;98689.69;;;-0.79;100.00
11314;BME280;5712;48.858;9.206;2023-03-04T04:39:31;98688.81;;;-0.79;100.00
11314;BME280;5712;48.858;9.206;2023-03-04T04:41:57;98691.44;;;-0.81;100.00
11314;BME280;5712;48.858;9.206;2023-03-04T04:44:25;98694.09;;;-0.85;100.00
11314;BME280;5712;48.858;9.206;2023-03-04T04:46:51;98694.03;;;-0.82;100.00
11314;BME280;5712;48.858;9.206;2023-03-04T04:49:18;98687.19;;;-0.85;100.00
11314;BME280;5712;48.858;9.206;2023-03-04T04:51:45;98686.44;;;-0.93;100.00
11314;BME280;5712;48.858;9.206;2023-03-04T04:54:13;98685.59;;;-0.95;100.00
11314;BME280;5712;48.858;9.206;2023-03-04T04:56:40;98691.63;;;-0.94;100.00
11314;BME280;5712;48.858;9.206;2023-03-04T04:59:06;98683.13;;;-1.02;100.00
11314;BME280;5712;48.858;9.206;2023-03-04T05:01:34;98690.91;;;-1.02;100.00
11314;BME280;5712;48.858;9.206;2023-03-04T05:04:01;98687.47;;;-1.04;100.00
11314;BME280;5712;48.858;9.206;2023-03-04T05:06:27;98696.16;;;-1.07;100.00
11314;BME280;5712;48.858;9.206;2023-03-04T05:08:54;98700.47;;;-1.06;100.00
11314;BME280;5712;48.858;9.206;2023-03-04T05:11:21;98704.03;;;-1.11;100.00
11314;BME280;5712;48.858;9.206;2023-03-04T05:13:48;98698.88;;;-1.16;100.00
11314;BME280;5712;48.858;9.206;2023-03-04T05:16:15;98704.09;;;-1.17;100.00
11314;BME280;5712;48.858;9.206;2023-03-04T05:18:43;98708.41;;;-1.16;100.00
11314;BME280;5712;48.858;9.206;2023-03-04T05:21:10;98705.03;;;-1.21;100.00
11314;BME280;5712;48.858;9.206;2023-03-04T05:23:38;98710.19;;;-1.21;100.00
11314;BME280;5712;48.858;9.206;2023-03-04T05:26:06;98711.03;;;-1.19;100.00
11314;BME280;5712;48.858;9.206;2023-03-04T05:28:33;98712.06;;;-1.29;100.00
11314;BME280;5712;48.858;9.206;2023-03-04T05:31:00;98717.31;;;-1.35;100.00
11314;BME280;5712;48.858;9.206;2023-03-04T05:33:27;98712.16;;;-1.38;100.00
11314;BME280;5712;48.858;9.206;2023-03-04T05:35:55;98713.88;;;-1.37;100.00
11314;BME280;5712;48.858;9.206;2023-03-04T05:38:21;98713.03;;;-1.39;100.00
11314;BME280;5712;48.858;9.206;2023-03-04T05:40:48;98712.16;;;-1.37;100.00
11314;BME280;5712;48.858;9.206;2023-03-04T05:43:15;98717.41;;;-1.41;100.00
11314;BME280;5712;48.858;9.206;2023-03-04T05:45:41;98719.19;;;-1.46;100.00
11314;BME280;5712;48.858;9.206;2023-03-04T05:48:08;98720.94;;;-1.48;100.00
11314;BME280;5712;48.858;9.206;2023-03-04T05:50:35;98714.06;;;-1.52;100.00
11314;BME280;5712;48.858;9.206;2023-03-04T05:53:03;98719.28;;;-1.55;100.00
11314;BME280;5712;48.858;9.206;2023-03-04T05:55:29;98720.97;;;-1.51;100.00
11314;BME280;5712;48.858;9.206;2023-03-04T05:57:57;98717.41;;;-1.44;100.00
11314;BME280;5712;48.858;9.206;2023-03-04T06:00:24;98721.84;;;-1.51;100.00
11314;BME280;5712;48.858;9.206;2023-03-04T06:02:50;98727.13;;;-1.60;100.00
11314;BME280;5712;48.858;9.206;2023-03-04T06:05:17;98728.00;;;-1.62;100.00
11314;BME280;5712;48.858;9.206;2023-03-04T06:07:44;98721.16;;;-1.66;100.00
11314;BME280;5712;48.858;9.206;2023-03-04T06:10:14;98727.25;;;-1.72;100.00
11314;BME280;5712;48.858;9.206;2023-03-04T06:12:40;98732.44;;;-1.70;100.00
11314;BME280;5712;48.858;9.206;2023-03-04T06:15:08;98726.28;;;-1.62;100.00
11314;BME280;5712;48.858;9.206;2023-03-04T06:17:35;98736.56;;;-1.54;100.00
11314;BME280;5712;48.858;9.206;2023-03-04T06:20:02;98739.19;;;-1.59;100.00
11314;BME280;5712;48.858;9.206;2023-03-04T06:22:30;98748.66;;;-1.53;100.00
11314;BME280;5712;48.858;9.206;2023-03-04T06:24:56;98739.16;;;-1.54;100.00
11314;BME280;5712;48.858;9.206;2023-03-04T06:27:24;98740.91;;;-1.56;100.00
11314;BME280;5712;48.858;9.206;2023-03-04T06:29:51;98748.69;;;-1.56;100.00
11314;BME280;5712;48.858;9.206;2023-03-04T06:32:17;98752.16;;;-1.57;100.00
11314;BME280;5712;48.858;9.206;2023-03-04T06:34:44;98746.06;;;-1.52;100.00
11314;BME280;5712;48.858;9.206;2023-03-04T06:37:10;98757.19;;;-1.47;100.00
11314;BME280;5712;48.858;9.206;2023-03-04T06:39:37;98753.69;;;-1.41;100.00
11314;BME280;5712;48.858;9.206;2023-03-04T06:42:03;98758.88;;;-1.41;100.00
11314;BME280;5712;48.858;9.206;2023-03-04T06:44:31;98764.06;;;-1.41;100.00
11314;BME280;5712;48.858;9.206;2023-03-04T06:46:58;98767.47;;;-1.36;100.00
11314;BME280;5712;48.858;9.206;2023-03-04T06:49:24;98771.75;;;-1.34;100.00
11314;BME280;5712;48.858;9.206;2023-03-04T06:51:51;98770.81;;;-1.28;100.00
11314;BME280;5712;48.858;9.206;2023-03-04T06:54:17;98772.41;;;-1.18;100.00
11314;BME280;5712;48.858;9.206;2023-03-04T06:56:44;98773.88;;;-0.99;100.00
11314;BME280;5712;48.858;9.206;2023-03-04T06:59:10;98778.94;;;-0.92;100.00
11314;BME280;5712;48.858;9.206;2023-03-04T07:01:39;98788.31;;;-0.80;100.00
11314;BME280;5712;48.858;9.206;2023-03-04T07:04:05;98782.06;;;-0.67;100.00
11314;BME280;5712;48.858;9.206;2023-03-04T07:06:32;98785.38;;;-0.56;100.00
11314;BME280;5712;48.858;9.206;2023-03-04T07:08:58;98783.56;;;-0.51;100.00
11314;BME280;5712;48.858;9.206;2023-03-04T07:11:25;98780.78;;;-0.41;100.00
11314;BME280;5712;48.858;9.206;2023-03-04T07:13:52;98777.16;;;-0.31;100.00
11314;BME280;5712;48.858;9.206;2023-03-04T07:16:20;98782.31;;;-0.28;100.00
11314;BME280;5712;48.858;9.206;2023-03-04T07:18:49;98785.63;;;-0.20;100.00
11314;BME280;5712;48.858;9.206;2023-03-04T07:21:16;98793.22;;;-0.10;100.00
11314;BME280;5712;48.858;9.206;2023-03-04T07:23:43;98794.81;;;0.00;100.00
11314;BME280;5712;48.858;9.206;2023-03-04T07:26:10;98797.38;;;0.03;100.00
11314;BME280;5712;48.858;9.206;2023-03-04T07:28:37;98791.19;;;0.10;100.00
11314;BME280;5712;48.858;9.206;2023-03-04T07:31:09;98800.56;;;0.19;100.00
11314;BME280;5712;48.858;9.206;2023-03-04T07:33:36;98802.28;;;0.18;100.00
11314;BME280;5712;48.858;9.206;2023-03-04T07:36:04;98798.66;;;0.28;100.00
11314;BME280;5712;48.858;9.206;2023-03-04T07:38:31;98795.09;;;0.32;100.00
11314;BME280;5712;48.858;9.206;2023-03-04T07:40:59;98800.19;;;0.38;100.00
11314;BME280;5712;48.858;9.206;2023-03-04T07:43:26;98803.56;;;0.43;100.00
11314;BME280;5712;48.858;9.206;2023-03-04T07:45:57;98804.25;;;0.51;100.00
11314;BME280;5712;48.858;9.206;2023-03-04T07:48:24;98807.41;;;0.68;100.00
11314;BME280;5712;48.858;9.206;2023-03-04T07:51:03;98804.88;;;0.65;100.00
11314;BME280;5712;48.858;9.206;2023-03-04T07:53:31;98806.59;;;0.65;100.00
11314;BME280;5712;48.858;9.206;2023-03-04T07:55:57;98815.31;;;0.62;100.00
11314;BME280;5712;48.858;9.206;2023-03-04T07:58:24;98813.59;;;0.63;100.00
11314;BME280;5712;48.858;9.206;2023-03-04T08:00:51;98810.84;;;0.70;100.00
11314;BME280;5712;48.858;9.206;2023-03-04T08:03:17;98813.59;;;0.61;100.00
11314;BME280;5712;48.858;9.206;2023-03-04T08:05:44;98812.69;;;0.64;100.00
11314;BME280;5712;48.858;9.206;2023-03-04T08:08:11;98821.13;;;0.76;100.00
11314;BME280;5712;48.858;9.206;2023-03-04T08:10:38;98822.72;;;0.83;100.00
11314;BME280;5712;48.858;9.206;2023-03-04T08:13:05;98821.81;;;0.84;100.00
11314;BME280;5712;48.858;9.206;2023-03-04T08:15:31;98820.69;;;0.97;100.00
11314;BME280;5712;48.858;9.206;2023-03-04T08:17:59;98827.59;;;0.98;100.00
11314;BME280;5712;48.858;9.206;2023-03-04T08:20:26;98826.91;;;0.90;100.00
11314;BME280;5712;48.858;9.206;2023-03-04T08:22:53;98832.75;;;1.01;100.00
11314;BME280;5712;48.858;9.206;2023-03-04T08:25:20;98835.25;;;1.07;100.00
11314;BME280;5712;48.858;9.206;2023-03-04T08:27:47;98830.19;;;0.98;100.00
11314;BME280;5712;48.858;9.206;2023-03-04T08:30:14;98836.38;;;0.94;100.00
11314;BME280;5712;48.858;9.206;2023-03-04T08:32:41;98828.63;;;0.91;100.00
11314;BME280;5712;48.858;9.206;2023-03-04T08:35:07;98833.06;;;0.86;100.00
11314;BME280;5712;48.858;9.206;2023-03-04T08:37:34;98844.88;;;1.02;100.00
11314;BME280;5712;48.858;9.206;2023-03-04T08:40:00;98842.28;;;1.02;100.00
11314;BME280;5712;48.858;9.206;2023-03-04T08:42:28;98838.69;;;1.06;100.00
11314;BME280;5712;48.858;9.206;2023-03-04T08:44:54;98842.91;;;1.13;100.00
11314;BME280;5712;48.858;9.206;2023-03-04T08:47:21;98839.59;;;1.05;100.00
11314;BME280;5712;48.858;9.206;2023-03-04T08:49:47;98832.44;;;1.16;100.00
11314;BME280;5712;48.858;9.206;2023-03-04T08:52:14;98837.38;;;1.28;100.00
11314;BME280;5712;48.858;9.206;2023-03-04T08:54:40;98837.25;;;1.34;100.00
11314;BME280;5712;48.858;9.206;2023-03-04T08:57:07;98832.56;;;1.48;100.00
11314;BME280;5712;48.858;9.206;2023-03-04T08:59:35;98829.84;;;1.54;100.00
11314;BME280;5712;48.858;9.206;2023-03-04T09:02:01;98832.16;;;1.66;100.00
11314;BME280;5712;48.858;9.206;2023-03-04T09:04:28;98826.88;;;1.71;100.00
11314;BME280;5712;48.858;9.206;2023-03-04T09:06:54;98828.31;;;1.82;100.00
11314;BME280;5712;48.858;9.206;2023-03-04T09:09:21;98832.59;;;1.86;100.00
11314;BME280;5712;48.858;9.206;2023-03-04T09:11:47;98829.72;;;1.97;100.00
11314;BME280;5712;48.858;9.206;2023-03-04T09:14:14;98831.72;;;1.86;99.98
11314;BME280;5712;48.858;9.206;2023-03-04T09:16:42;98831.41;;;1.98;100.00
11314;BME280;5712;48.858;9.206;2023-03-04T09:19:08;98834.78;;;2.03;100.00
11314;BME280;5712;48.858;9.206;2023-03-04T09:21:35;98837.25;;;2.07;99.93
11314;BME280;5712;48.858;9.206;2023-03-04T09:24:01;98833.63;;;2.13;98.48
11314;BME280;5712;48.858;9.206;2023-03-04T09:26:28;98836.31;;;2.11;98.56
11314;BME280;5712;48.858;9.206;2023-03-04T09:28:57;98836.09;;;2.19;98.60
11314;BME280;5712;48.858;9.206;2023-03-04T09:31:24;98831.50;;;2.28;97.54
11314;BME280;5712;48.858;9.206;2023-03-04T09:33:52;98826.22;;;2.31;96.98
11314;BME280;5712;48.858;9.206;2023-03-04T09:36:19;98822.56;;;2.38;97.26
11314;BME280;5712;48.858;9.206;2023-03-04T09:38:46;98818.81;;;2.48;96.88
11314;BME280;5712;48.858;9.206;2023-03-04T09:41:15;98821.19;;;2.57;96.41
11314;BME280;5712;48.858;9.206;2023-03-04T09:43:44;98819.16;;;2.67;95.86
11314;BME280;5712;48.858;9.206;2023-03-04T09:46:15;98812.22;;;2.67;94.41
11314;BME280;5712;48.858;9.206;2023-03-04T09:48:46;98816.19;;;2.80;93.03
11314;BME280;5712;48.858;9.206;2023-03-04T09:51:21;98814.22;;;2.88;91.91
11314;BME280;5712;48.858;9.206;2023-03-04T09:53:56;98809.56;;;2.99;91.27
11314;BME280;5712;48.858;9.206;2023-03-04T09:56:27;98810.09;;;3.10;89.78
11314;BME280;5712;48.858;9.206;2023-03-04T09:59:02;98808.28;;;3.12;89.44
11314;BME280;5712;48.858;9.206;2023-03-04T10:01:35;98806.41;;;3.17;88.76
11314;BME280;5712;48.858;9.206;2023-03-04T10:04:10;98804.72;;;3.16;87.51
11314;BME280;5712;48.858;9.206;2023-03-04T10:06:41;98800.94;;;3.26;86.54
11314;BME280;5712;48.858;9.206;2023-03-04T10:09:11;98798.06;;;3.34;85.37
11314;BME280;5712;48.858;9.206;2023-03-04T10:11:42;98794.44;;;3.39;85.35
11314;BME280;5712;48.858;9.206;2023-03-04T10:14:20;98796.16;;;3.40;83.63
11314;BME280;5712;48.858;9.206;2023-03-04T10:16:54;98792.34;;;3.50;83.76
11314;BME280;5712;48.858;9.206;2023-03-04T10:19:30;98780.66;;;3.62;80.90
11314;BME280;5712;48.858;9.206;2023-03-04T10:22:01;98774.56;;;3.61;79.61
11314;BME280;5712;48.858;9.206;2023-03-04T10:24:37;98784.09;;;3.62;80.49
11314;BME280;5712;48.858;9.206;2023-03-04T10:27:06;98781.09;;;3.74;80.58
11314;BME280;5712;48.858;9.206;2023-03-04T10:29:37;98775.75;;;3.79;80.24
11314;BME280;5712;48.858;9.206;2023-03-04T10:32:04;98778.97;;;3.87;80.73
11314;BME280;5712;48.858;9.206;2023-03-04T10:34:31;98775.28;;;3.92;78.65
11314;BME280;5712;48.858;9.206;2023-03-04T10:36:59;98767.84;;;3.80;76.77
11314;BME280;5712;48.858;9.206;2023-03-04T10:39:29;98759.41;;;3.72;77.56
11314;BME280;5712;48.858;9.206;2023-03-04T10:41:59;98769.97;;;3.69;77.71
11314;BME280;5712;48.858;9.206;2023-03-04T10:44:27;98763.44;;;3.82;76.20
11314;BME280;5712;48.858;9.206;2023-03-04T10:46:55;98766.53;;;3.67;77.13
11314;BME280;5712;48.858;9.206;2023-03-04T10:49:23;98767.03;;;3.52;77.07
11314;BME280;5712;48.858;9.206;2023-03-04T10:51:53;98763.38;;;3.56;77.61
11314;BME280;5712;48.858;9.206;2023-03-04T10:54:25;98765.13;;;3.57;77.60
11314;BME280;5712;48.858;9.206;2023-03-04T10:56:56;98760.75;;;3.58;77.80
11314;BME280;5712;48.858;9.206;2023-03-04T10:59:35;98748.97;;;3.71;76.03
11314;BME280;5712;48.858;9.206;2023-03-04T11:02:14;98749.13;;;3.66;75.57
11314;BME280;5712;48.858;9.206;2023-03-04T11:04:41;98748.63;;;3.55;76.17
11314;BME280;5712;48.858;9.206;2023-03-04T11:07:08;98749.53;;;3.54;76.77
11314;BME280;5712;48.858;9.206;2023-03-04T11:09:36;98745.94;;;3.58;76.45
11314;BME280;5712;48.858;9.206;2023-03-04T11:12:09;98746.38;;;3.71;76.04
11314;BME280;5712;48.858;9.206;2023-03-04T11:14:39;98740.81;;;3.81;76.51
11314;BME280;5712;48.858;9.206;2023-03-04T11:17:17;98742.47;;;3.84;76.11
11314;BME280;5712;48.858;9.206;2023-03-04T11:19:47;98740.38;;;3.67;75.71
11314;BME280;5712;48.858;9.206;2023-03-04T11:22:15;98741.91;;;3.74;77.45
11314;BME280;5712;48.858;9.206;2023-03-04T11:24:43;98730.47;;;3.77;74.94
11314;BME280;5712;48.858;9.206;2023-03-04T11:27:16;98727.13;;;3.73;74.50
11314;BME280;5712;48.858;9.206;2023-03-04T11:29:47;98722.59;;;3.78;73.65
11314;BME280;5712;48.858;9.206;2023-03-04T11:32:19;98723.41;;;3.54;73.21
11314;BME280;5712;48.858;9.206;2023-03-04T11:34:49;98715.31;;;3.62;73.60
11314;BME280;5712;48.858;9.206;2023-03-04T11:37:23;98725.28;;;3.49;74.52
11314;BME280;5712;48.858;9.206;2023-03-04T11:39:53;98732.03;;;3.56;74.76
11314;BME280;5712;48.858;9.206;2023-03-04T11:42:34;98728.94;;;3.45;75.54
11314;BME280;5712;48.858;9.206;2023-03-04T11:45:03;98728.81;;;3.48;75.47
11314;BME280;5712;48.858;9.206;2023-03-04T11:47:43;98734.94;;;3.47;76.12
11314;BME280;5712;48.858;9.206;2023-03-04T11:50:28;98722.75;;;3.48;75.76
11314;BME280;5712;48.858;9.206;2023-03-04T11:53:07;98735.72;;;3.51;76.28
11314;BME280;5712;48.858;9.206;2023-03-04T11:55:45;98726.13;;;3.51;75.96
11314;BME280;5712;48.858;9.206;2023-03-04T11:58:37;98719.59;;;3.64;75.34
11314;BME280;5712;48.858;9.206;2023-03-04T12:01:08;98712.75;;;3.60;74.88
11314;BME280;5712;48.858;9.206;2023-03-04T12:04:11;98709.28;;;3.60;75.34
11314;BME280;5712;48.858;9.206;2023-03-04T12:06:52;98709.34;;;3.58;75.92
11314;BME280;5712;48.858;9.206;2023-03-04T12:09:39;98703.72;;;3.70;75.59
11314;BME280;5712;48.858;9.206;2023-03-04T12:12:25;98705.41;;;3.45;75.95
11314;BME280;5712;48.858;9.206;2023-03-04T12:15:00;98700.38;;;3.39;76.50
11314;BME280;5712;48.858;9.206;2023-03-04T12:17:42;98695.94;;;3.41;76.02
11314;BME280;5712;48.858;9.206;2023-03-04T12:20:23;98685.50;;;3.41;75.62
11314;BME280;5712;48.858;9.206;2023-03-04T12:22:59;98683.69;;;3.43;75.46
11314;BME280;5712;48.858;9.206;2023-03-04T12:25:38;98684.19;;;3.54;75.64
11314;BME280;5712;48.858;9.206;2023-03-04T12:28:23;98682.66;;;3.49;75.91
11314;BME280;5712;48.858;9.206;2023-03-04T12:31:18;98678.38;;;3.46;75.94
11314;BME280;5712;48.858;9.206;2023-03-04T12:33:59;98676.88;;;3.39;75.73
11314;BME280;5712;48.858;9.206;2023-03-04T12:36:35;98678.00;;;3.31;76.12
11314;BME280;5712;48.858;9.206;2023-03-04T12:39:18;98677.53;;;3.18;76.88
11314;BME280;5712;48.858;9.206;2023-03-04T12:41:52;98671.09;;;3.30;77.43
11314;BME280;5712;48.858;9.206;2023-03-04T12:44:22;98673.69;;;3.30;77.39
11314;BME280;5712;48.858;9.206;2023-03-04T12:47:06;98665.94;;;3.27;76.77
11314;BME280;5712;48.858;9.206;2023-03-04T12:49:48;98662.53;;;3.25;76.39
11314;BME280;5712;48.858;9.206;2023-03-04T12:52:27;98662.34;;;3.03;77.59
11314;BME280;5712;48.858;9.206;2023-03-04T12:55:01;98658.41;;;3.18;76.85
11314;BME280;5712;48.858;9.206;2023-03-04T12:57:29;98657.28;;;3.26;75.75
11314;BME280;5712;48.858;9.206;2023-03-04T13:00:06;98656.72;;;3.17;75.97
11314;BME280;5712;48.858;9.206;2023-03-04T13:02:49;98644.28;;;3.23;75.35
11314;BME280;5712;48.858;9.206;2023-03-04T13:05:29;98644.41;;;3.20;75.34
11314;BME280;5712;48.858;9.206;2023-03-04T13:08:07;98640.88;;;3.21;74.93
11314;BME280;5712;48.858;9.206;2023-03-04T13:10:36;98644.09;;;3.29;75.45
11314;BME280;5712;48.858;9.206;2023-03-04T13:13:03;98636.25;;;3.29;73.88
11314;BME280;5712;48.858;9.206;2023-03-04T13:15:32;98637.16;;;3.28;74.03
11314;BME280;5712;48.858;9.206;2023-03-04T13:18:03;98636.97;;;3.34;73.60
11314;BME280;5712;48.858;9.206;2023-03-04T13:21:05;98629.84;;;3.39;72.79
11314;BME280;5712;48.858;9.206;2023-03-04T13:23:32;98639.41;;;3.39;73.26